Time;durP1;ratioP1;P1;durP2;ratioP2;P2;SDS_P1;SDS_P2;PMS_P1;PMS_P2;Temp;Humidity;BMP_temperature;BMP_pressure;BME280_temperature;BME280_humidity;BME280_pressure;Samples;Min_cycle;Max_cycle;Signal;HPM_P1;HPM_P2
2023/05/11 00:00:03;;;;;;;6.97;2.63;;;10.20;99.90;;;;;;5092013;28;20044;-86
2023/05/11 00:02:28;;;;;;;5.35;2.72;;;10.20;99.90;;;;;;5093234;28;20042;-86
2023/05/11 00:04:54;;;;;;;6.22;2.72;;;10.20;99.90;;;;;;5093045;28;20087;-86
2023/05/11 00:07:20;;;;;;;8.20;3.40;;;10.20;99.90;;;;;;5091931;28;20136;-86
2023/05/11 00:09:46;;;;;;;6.80;3.08;;;10.10;99.90;;;;;;5092895;28;20044;-86
2023/05/11 00:12:13;;;;;;;6.72;3.45;;;10.20;99.90;;;;;;5091712;28;20044;-86
2023/05/11 00:14:39;;;;;;;6.57;3.17;;;10.10;99.90;;;;;;5093206;28;20094;-86
2023/05/11 00:17:05;;;;;;;6.93;2.88;;;10.10;99.90;;;;;;5091625;28;20487;-86
2023/05/11 00:19:31;;;;;;;5.00;2.20;;;10.00;99.90;;;;;;5092982;28;20426;-86
2023/05/11 00:21:57;;;;;;;5.97;2.67;;;9.90;99.90;;;;;;5093024;28;20552;-86
2023/05/11 00:24:24;;;;;;;6.15;2.95;;;9.90;99.90;;;;;;5092756;28;20063;-85
2023/05/11 00:26:50;;;;;;;5.72;2.47;;;10.00;99.90;;;;;;5092245;28;20141;-86
2023/05/11 00:29:16;;;;;;;6.22;2.97;;;10.00;99.90;;;;;;5095547;28;20078;-86
2023/05/11 00:31:41;;;;;;;6.85;2.65;;;10.00;99.90;;;;;;5096300;28;20126;-86
2023/05/11 00:34:07;;;;;;;5.35;2.97;;;10.00;99.90;;;;;;5096570;28;20032;-86
2023/05/11 00:36:33;;;;;;;6.03;2.95;;;10.00;99.90;;;;;;5096435;28;20044;-86
2023/05/11 00:38:59;;;;;;;7.32;2.75;;;10.00;99.90;;;;;;5096241;28;20051;-87
2023/05/11 00:41:24;;;;;;;5.97;2.88;;;10.00;99.90;;;;;;5096343;28;20487;-86
2023/05/11 00:43:50;;;;;;;6.95;2.97;;;10.10;99.90;;;;;;5096377;28;20060;-86
2023/05/11 00:46:16;;;;;;;6.38;3.17;;;10.00;99.90;;;;;;5094916;28;20044;-86
2023/05/11 00:48:43;;;;;;;7.85;3.83;;;10.00;99.90;;;;;;5096234;28;20052;-86
2023/05/11 00:51:11;;;;;;;7.72;3.47;;;10.00;99.90;;;;;;5096233;28;20062;-86
2023/05/11 00:53:37;;;;;;;6.05;3.00;;;10.10;99.90;;;;;;5096141;28;20060;-86
2023/05/11 00:56:03;;;;;;;7.25;3.60;;;10.10;99.90;;;;;;5095994;28;20058;-86
2023/05/11 00:58:30;;;;;;;8.02;3.65;;;10.00;99.90;;;;;;5094989;28;20134;-86
2023/05/11 01:00:55;;;;;;;8.77;3.50;;;9.90;99.90;;;;;;5096042;28;20044;-86
2023/05/11 01:03:21;;;;;;;7.15;3.28;;;10.00;99.90;;;;;;5095916;28;20036;-86
2023/05/11 01:06:38;;;;;;;9.65;3.70;;;9.90;99.90;;;;;;5095587;28;20495;-85
2023/05/11 01:09:14;;;;;;;9.23;3.67;;;9.90;99.90;;;;;;4997413;28;20089;-85
2023/05/11 01:11:51;;;;;;;9.82;3.65;;;9.80;99.90;;;;;;5013853;28;20042;-86
2023/05/11 01:14:41;;;;;;;7.22;3.30;;;9.80;99.90;;;;;;5071460;28;20052;-86
2023/05/11 01:17:21;;;;;;;8.63;3.28;;;9.80;99.90;;;;;;5095822;28;20052;-86
2023/05/11 01:19:55;;;;;;;8.60;4.07;;;9.70;99.90;;;;;;5095759;28;20050;-86
2023/05/11 01:22:42;;;;;;;8.10;3.67;;;9.70;99.90;;;;;;5095641;28;20040;-85
2023/05/11 01:25:33;;;;;;;6.55;3.00;;;9.80;99.90;;;;;;5095405;28;20052;-85
2023/05/11 01:28:26;;;;;;;8.93;3.45;;;9.90;99.90;;;;;;5095858;28;20040;-86
2023/05/11 01:31:01;;;;;;;8.02;3.45;;;9.80;99.90;;;;;;5095380;28;20483;-86
2023/05/11 01:33:32;;;;;;;7.32;3.47;;;9.80;99.90;;;;;;5095312;28;20052;-86
2023/05/11 01:36:04;;;;;;;11.07;3.30;;;9.80;99.90;;;;;;5093967;28;20495;-85
2023/05/11 01:38:33;;;;;;;8.25;3.30;;;9.80;99.90;;;;;;5095129;28;20423;-85
2023/05/11 01:41:02;;;;;;;6.78;3.58;;;9.70;99.90;;;;;;5095201;28;20046;-85
2023/05/11 01:43:31;;;;;;;6.85;3.15;;;9.80;99.90;;;;;;5093940;28;20120;-85
2023/05/11 01:46:01;;;;;;;10.75;3.28;;;9.80;99.90;;;;;;5093613;28;20515;-86
2023/05/11 01:48:32;;;;;;;27.95;4.80;;;9.80;99.90;;;;;;5095208;28;20054;-86
2023/05/11 01:51:01;;;;;;;17.02;3.25;;;9.80;99.90;;;;;;5093786;28;20071;-86
2023/05/11 01:53:30;;;;;;;28.30;4.32;;;9.70;99.90;;;;;;5095069;28;20044;-86
2023/05/11 01:55:58;;;;;;;8.88;3.97;;;9.70;99.90;;;;;;5094971;28;20058;-86
2023/05/11 01:58:25;;;;;;;8.43;3.15;;;9.70;99.90;;;;;;5093504;28;20048;-86
2023/05/11 02:00:54;;;;;;;7.50;3.58;;;9.80;99.90;;;;;;5094858;28;20048;-86
2023/05/11 02:03:20;;;;;;;94.88;6.30;;;9.90;99.90;;;;;;5094789;28;20119;-86
2023/05/11 02:05:48;;;;;;;33.70;4.45;;;9.70;99.90;;;;;;5093506;28;20074;-86
2023/05/11 02:08:15;;;;;;;14.63;3.85;;;9.70;99.90;;;;;;5093451;28;20055;-85
2023/05/11 02:10:42;;;;;;;16.38;3.67;;;9.60;99.90;;;;;;5093324;28;20426;-86
2023/05/11 02:13:09;;;;;;;10.70;3.20;;;9.60;99.90;;;;;;5093701;28;20122;-86
2023/05/11 02:15:42;;;;;;;33.33;4.68;;;9.60;99.90;;;;;;5093199;28;20055;-86
2023/05/11 02:18:12;;;;;;;12.30;4.00;;;9.70;99.90;;;;;;5094587;28;20081;-86
2023/05/11 02:20:42;;;;;;;24.38;5.03;;;9.60;99.90;;;;;;5094347;28;20044;-85
2023/05/11 02:23:09;;;;;;;141.73;8.50;;;9.60;99.90;;;;;;5094502;28;20040;-86
2023/05/11 02:25:42;;;;;;;15.40;3.60;;;9.60;99.90;;;;;;5094456;28;20094;-86
2023/05/11 02:28:08;;;;;;;10.55;2.88;;;9.50;99.90;;;;;;5093255;28;20051;-86
2023/05/11 02:30:41;;;;;;;12.80;3.40;;;9.50;99.90;;;;;;5094676;28;20051;-86
2023/05/11 02:33:10;;;;;;;30.40;4.47;;;9.60;99.90;;;;;;5094349;28;20048;-86
2023/05/11 02:35:42;;;;;;;19.95;4.22;;;9.60;99.90;;;;;;5093304;28;20052;-86
2023/05/11 02:38:09;;;;;;;36.83;4.70;;;9.50;99.90;;;;;;5094873;28;20097;-86
2023/05/11 02:40:44;;;;;;;9.48;3.53;;;9.50;99.90;;;;;;5094047;28;20484;-87
2023/05/11 02:43:12;;;;;;;35.10;4.65;;;9.60;99.90;;;;;;5093047;28;20051;-86
2023/05/11 02:45:43;;;;;;;32.58;4.93;;;9.60;99.90;;;;;;5093954;28;20480;-86
2023/05/11 02:48:13;;;;;;;18.88;4.15;;;9.60;99.90;;;;;;5094101;28;20111;-86
2023/05/11 02:50:40;;;;;;;22.73;4.35;;;9.60;99.90;;;;;;5092414;28;20090;-86
2023/05/11 02:53:13;;;;;;;56.15;6.00;;;9.60;99.90;;;;;;5093823;28;20534;-86
2023/05/11 02:55:40;;;;;;;52.85;5.88;;;9.60;99.90;;;;;;5093995;28;20044;-86
2023/05/11 02:58:06;;;;;;;92.43;7.43;;;9.70;99.90;;;;;;5093941;28;20062;-86
2023/05/11 03:00:32;;;;;;;64.43;6.15;;;9.70;99.90;;;;;;5093823;28;20063;-86
2023/05/11 03:02:58;;;;;;;65.50;6.53;;;9.60;99.90;;;;;;5092751;28;20052;-86
2023/05/11 03:05:24;;;;;;;81.32;7.35;;;9.60;99.90;;;;;;5093737;28;20055;-86
2023/05/11 03:07:56;;;;;;;45.17;5.95;;;9.60;99.90;;;;;;5093799;28;20040;-86
2023/05/11 03:10:23;;;;;;;25.67;4.18;;;9.60;99.90;;;;;;5093910;28;20036;-86
2023/05/11 03:12:49;;;;;;;36.97;4.80;;;9.60;99.90;;;;;;5093497;28;20059;-86
2023/05/11 03:15:15;;;;;;;13.85;3.90;;;9.60;99.90;;;;;;5093683;28;20071;-86
2023/05/11 03:17:42;;;;;;;10.70;3.58;;;9.70;99.90;;;;;;5093571;28;20032;-86
2023/05/11 03:20:08;;;;;;;10.68;3.67;;;9.70;99.90;;;;;;5093654;28;20055;-86
2023/05/11 03:22:36;;;;;;;7.72;3.58;;;9.60;99.90;;;;;;5092348;28;20052;-86
2023/05/11 03:25:03;;;;;;;10.07;4.32;;;9.70;99.90;;;;;;5093284;28;20056;-86
2023/05/11 03:27:32;;;;;;;7.65;3.80;;;9.70;99.90;;;;;;5092269;28;20134;-86
2023/05/11 03:30:00;;;;;;;7.28;3.80;;;9.70;99.90;;;;;;5093583;28;20047;-86
2023/05/11 03:32:26;;;;;;;11.95;4.68;;;9.70;99.90;;;;;;5092442;28;20052;-86
2023/05/11 03:34:51;;;;;;;15.13;4.60;;;9.80;99.90;;;;;;5093535;28;20047;-86
2023/05/11 03:37:19;;;;;;;12.90;4.75;;;9.80;99.90;;;;;;5093443;28;20044;-86
2023/05/11 03:39:46;;;;;;;18.00;5.10;;;9.80;99.90;;;;;;5093261;28;20166;-87
2023/05/11 03:42:14;;;;;;;19.75;5.15;;;9.80;99.90;;;;;;5093302;28;20372;-86
2023/05/11 03:44:44;;;;;;;9.45;4.85;;;9.80;99.90;;;;;;5092127;28;20052;-87
2023/05/11 03:47:12;;;;;;;12.52;4.30;;;9.80;99.90;;;;;;5093439;28;20042;-87
2023/05/11 03:49:38;;;;;;;13.23;4.43;;;9.80;99.90;;;;;;5093263;28;20056;-86
2023/05/11 03:52:06;;;;;;;20.70;4.95;;;9.80;99.90;;;;;;5093410;28;20487;-86
2023/05/11 03:54:32;;;;;;;31.65;5.68;;;9.80;99.90;;;;;;5092948;28;20043;-87
2023/05/11 03:56:58;;;;;;;23.20;5.05;;;9.80;99.90;;;;;;5091834;28;20044;-86
2023/05/11 03:59:24;;;;;;;10.55;4.47;;;9.70;99.90;;;;;;5090524;28;20050;-86
2023/05/11 04:01:52;;;;;;;8.68;4.38;;;9.70;99.90;;;;;;5093356;28;20089;-86
2023/05/11 04:04:26;;;;;;;7.32;4.45;;;9.80;99.90;;;;;;5097023;28;20083;-86
2023/05/11 04:06:52;;;;;;;9.27;4.28;;;9.70;99.90;;;;;;5095822;28;20040;-86
2023/05/11 04:09:17;;;;;;;10.05;4.47;;;9.80;99.90;;;;;;5096905;28;20465;-86
2023/05/11 04:11:43;;;;;;;9.35;4.22;;;9.80;99.90;;;;;;5096877;28;20043;-86
2023/05/11 04:14:09;;;;;;;23.83;4.93;;;9.80;99.90;;;;;;5096897;28;20063;-86
2023/05/11 04:16:34;;;;;;;12.95;5.00;;;9.90;99.90;;;;;;5096855;28;20036;-86
2023/05/11 04:19:00;;;;;;;15.02;4.55;;;9.90;99.90;;;;;;5096531;28;20052;-86
2023/05/11 04:21:26;;;;;;;29.50;4.90;;;9.90;99.90;;;;;;5095399;28;20451;-86
2023/05/11 04:23:52;;;;;;;17.08;4.75;;;9.80;99.90;;;;;;5095147;28;20076;-86
2023/05/11 04:26:17;;;;;;;16.52;4.75;;;9.90;99.90;;;;;;5096227;28;20097;-87
2023/05/11 04:28:43;;;;;;;14.35;4.65;;;9.90;99.90;;;;;;5096619;28;20044;-86
2023/05/11 04:31:09;;;;;;;29.25;5.32;;;9.80;99.90;;;;;;5095211;28;20052;-87
2023/05/11 04:33:34;;;;;;;32.72;5.22;;;9.90;99.90;;;;;;5096541;28;20043;-86
2023/05/11 04:36:00;;;;;;;19.77;5.55;;;9.90;99.90;;;;;;5096419;28;20162;-86
2023/05/11 04:38:26;;;;;;;21.92;5.88;;;10.00;99.90;;;;;;5096046;28;20047;-86
2023/05/11 04:40:52;;;;;;;24.73;5.68;;;10.00;99.90;;;;;;5095220;28;20438;-86
2023/05/11 04:43:18;;;;;;;15.07;5.57;;;9.90;99.90;;;;;;5096067;28;20468;-87
2023/05/11 04:45:48;;;;;;;35.00;6.82;;;10.00;99.90;;;;;;5096176;28;20028;-86
2023/05/11 04:48:14;;;;;;;20.67;6.40;;;10.00;99.90;;;;;;5096705;28;20036;-86
2023/05/11 04:50:39;;;;;;;29.15;6.10;;;10.00;99.90;;;;;;5096271;28;20039;-86
2023/05/11 04:53:05;;;;;;;30.48;6.50;;;10.00;99.90;;;;;;5096008;28;20559;-86
2023/05/11 04:55:31;;;;;;;18.50;6.38;;;10.00;99.90;;;;;;5094615;28;20059;-86
2023/05/11 04:57:56;;;;;;;26.75;6.25;;;10.00;99.90;;;;;;5096003;28;20510;-86
2023/05/11 05:00:22;;;;;;;18.70;6.30;;;10.00;99.90;;;;;;5096100;28;20446;-86
2023/05/11 05:02:49;;;;;;;14.52;5.65;;;10.00;99.90;;;;;;5094444;28;20048;-86
2023/05/11 05:05:15;;;;;;;17.15;6.72;;;10.00;99.90;;;;;;5095846;28;20083;-86
2023/05/11 05:07:41;;;;;;;33.45;8.50;;;10.00;99.90;;;;;;5095586;28;20086;-86
2023/05/11 05:10:08;;;;;;;19.15;6.53;;;10.10;99.90;;;;;;5094395;28;20438;-86
2023/05/11 05:12:36;;;;;;;16.10;7.18;;;10.10;99.90;;;;;;5095424;28;20040;-86
2023/05/11 05:15:03;;;;;;;21.63;7.22;;;10.10;99.90;;;;;;5095778;28;20046;-86
2023/05/11 05:17:28;;;;;;;18.33;7.80;;;10.10;99.90;;;;;;5095618;28;20059;-86
2023/05/11 05:19:54;;;;;;;29.83;7.97;;;10.20;99.90;;;;;;5095518;28;20040;-86
2023/05/11 05:22:20;;;;;;;25.40;8.27;;;10.20;99.90;;;;;;5095619;28;20055;-86
2023/05/11 05:24:46;;;;;;;17.65;8.10;;;10.20;99.90;;;;;;5095213;28;20067;-86
2023/05/11 05:27:13;;;;;;;17.90;7.82;;;10.30;99.90;;;;;;5095424;28;20047;-86
2023/05/11 05:29:38;;;;;;;20.33;8.70;;;10.30;99.90;;;;;;5095305;28;20055;-86
2023/05/11 05:32:04;;;;;;;27.92;8.68;;;10.30;99.90;;;;;;5094187;28;20392;-86
2023/05/11 05:34:30;;;;;;;20.25;8.98;;;10.30;99.90;;;;;;5093767;28;20495;-86
2023/05/11 05:36:55;;;;;;;29.73;8.93;;;10.40;99.90;;;;;;5094113;28;20044;-86
2023/05/11 05:39:21;;;;;;;24.27;9.45;;;10.50;99.90;;;;;;5094018;28;20050;-86
2023/05/11 05:41:46;;;;;;;26.08;9.65;;;10.40;99.90;;;;;;5093726;28;20051;-86
2023/05/11 05:44:12;;;;;;;21.38;9.57;;;10.50;99.90;;;;;;5094304;28;20054;-86
2023/05/11 05:46:38;;;;;;;20.60;9.77;;;10.50;99.90;;;;;;5093549;28;20052;-86
2023/05/11 05:49:03;;;;;;;23.23;10.65;;;10.50;99.90;;;;;;5094781;28;20118;-86
2023/05/11 05:51:30;;;;;;;22.10;10.73;;;10.60;99.90;;;;;;5093459;28;20688;-86
2023/05/11 05:53:55;;;;;;;20.75;10.60;;;10.50;99.90;;;;;;5093605;28;20051;-86
2023/05/11 05:56:21;;;;;;;24.02;11.95;;;10.60;99.90;;;;;;5093543;28;20076;-86
2023/05/11 05:58:47;;;;;;;20.30;11.85;;;10.50;99.90;;;;;;5094946;28;20056;-86
2023/05/11 06:01:13;;;;;;;24.00;13.75;;;10.60;99.90;;;;;;5094616;28;20032;-85
2023/05/11 06:03:38;;;;;;;22.48;13.57;;;10.70;99.90;;;;;;5094860;28;20373;-86
2023/05/11 06:06:05;;;;;;;21.27;12.48;;;10.60;99.90;;;;;;5093137;28;20110;-85
2023/05/11 06:08:31;;;;;;;22.90;13.43;;;10.80;99.90;;;;;;5093171;28;20391;-85
2023/05/11 06:10:57;;;;;;;24.60;13.18;;;10.70;99.90;;;;;;5094391;28;20487;-86
2023/05/11 06:13:23;;;;;;;24.05;13.35;;;10.70;99.90;;;;;;5093097;28;20047;-86
2023/05/11 06:15:48;;;;;;;18.20;11.43;;;10.80;99.90;;;;;;5094437;28;20059;-86
2023/05/11 06:18:14;;;;;;;21.02;10.52;;;10.70;99.90;;;;;;5094234;28;20115;-86
2023/05/11 06:20:40;;;;;;;21.77;11.13;;;10.80;99.90;;;;;;5092911;28;20109;-86
2023/05/11 06:23:05;;;;;;;22.17;10.18;;;10.80;99.90;;;;;;5093498;28;20052;-86
2023/05/11 06:25:34;;;;;;;16.48;8.20;;;10.80;99.90;;;;;;5091872;28;20138;-86
2023/05/11 06:28:02;;;;;;;19.35;9.23;;;10.90;99.90;;;;;;5094675;28;20051;-86
2023/05/11 06:30:28;;;;;;;17.40;8.18;;;10.90;99.90;;;;;;5094070;28;20545;-86
2023/05/11 06:32:54;;;;;;;16.85;8.32;;;11.00;99.90;;;;;;5092699;28;20052;-86
2023/05/11 06:35:21;;;;;;;17.35;7.95;;;10.90;99.90;;;;;;5094298;28;20039;-86
2023/05/11 06:37:46;;;;;;;15.65;9.18;;;10.90;99.90;;;;;;5093999;28;20135;-86
2023/05/11 06:40:14;;;;;;;15.95;9.07;;;10.90;99.90;;;;;;5094102;28;20127;-86
2023/05/11 06:42:40;;;;;;;17.75;8.65;;;10.80;99.90;;;;;;5093034;28;20080;-87
2023/05/11 06:45:08;;;;;;;15.95;8.52;;;10.80;99.90;;;;;;5094083;28;20028;-86
2023/05/11 06:47:34;;;;;;;13.98;7.13;;;10.80;99.90;;;;;;5092648;28;20055;-86
2023/05/11 06:50:00;;;;;;;13.20;7.05;;;10.90;99.90;;;;;;5094202;28;20032;-87
2023/05/11 06:52:26;;;;;;;15.73;7.53;;;10.90;99.90;;;;;;5094172;28;20048;-87
2023/05/11 06:54:51;;;;;;;12.52;6.72;;;10.90;99.90;;;;;;5093880;28;20411;-87
2023/05/11 06:57:17;;;;;;;11.65;5.97;;;10.90;99.90;;;;;;5090332;28;20048;-86
2023/05/11 06:59:43;;;;;;;12.50;6.72;;;11.00;99.90;;;;;;5082259;28;20044;-86
2023/05/11 07:02:09;;;;;;;13.45;6.88;;;11.00;99.90;;;;;;5072073;28;20055;-86
2023/05/11 07:04:36;;;;;;;11.88;6.20;;;11.00;99.90;;;;;;5072152;28;20053;-86
2023/05/11 07:07:02;;;;;;;11.38;5.88;;;11.00;99.90;;;;;;5071989;28;20127;-87
2023/05/11 07:09:28;;;;;;;9.40;5.70;;;11.20;99.90;;;;;;5073458;28;20048;-87
2023/05/11 07:11:54;;;;;;;9.30;5.75;;;11.10;99.90;;;;;;5073455;28;20119;-86
2023/05/11 07:14:20;;;;;;;11.32;6.18;;;11.30;99.90;;;;;;5073087;28;20476;-87
2023/05/11 07:16:45;;;;;;;12.88;5.57;;;11.30;99.90;;;;;;5073056;28;20066;-86
2023/05/11 07:19:11;;;;;;;9.07;4.95;;;11.30;99.90;;;;;;5073079;28;20131;-87
2023/05/11 07:21:37;;;;;;;8.30;5.40;;;11.30;99.90;;;;;;5072085;28;20700;-87
2023/05/11 07:24:02;;;;;;;13.52;6.18;;;11.20;99.90;;;;;;5073346;28;20365;-87
2023/05/11 07:26:29;;;;;;;8.68;5.57;;;11.30;99.90;;;;;;5071638;28;20419;-87
2023/05/11 07:28:54;;;;;;;8.65;5.10;;;11.20;99.90;;;;;;5073052;28;20040;-87
2023/05/11 07:31:21;;;;;;;10.60;5.93;;;11.20;99.90;;;;;;5071967;28;20056;-84
2023/05/11 07:33:47;;;;;;;9.30;5.30;;;11.30;99.90;;;;;;5071704;28;20466;-86
2023/05/11 07:36:13;;;;;;;9.45;4.93;;;11.20;99.90;;;;;;5074506;28;20048;-85
2023/05/11 07:38:42;;;;;;;10.93;5.60;;;11.30;99.90;;;;;;5109946;28;20109;-85
2023/05/11 07:41:07;;;;;;;11.43;5.82;;;11.30;99.90;;;;;;5077313;28;20438;-86
2023/05/11 07:43:33;;;;;;;11.95;5.95;;;11.30;99.90;;;;;;5076909;28;20191;-86
2023/05/11 07:45:59;;;;;;;12.68;6.63;;;11.40;99.90;;;;;;5075683;28;20098;-83
2023/05/11 07:48:24;;;;;;;11.80;6.25;;;11.30;99.90;;;;;;5077050;28;20484;-84
2023/05/11 07:50:50;;;;;;;11.05;6.32;;;11.40;99.90;;;;;;5075780;28;20090;-84
2023/05/11 07:53:16;;;;;;;13.02;6.65;;;11.40;99.90;;;;;;5077008;28;20460;-84
2023/05/11 07:55:41;;;;;;;17.00;7.50;;;11.50;99.90;;;;;;5076641;28;20597;-85
2023/05/11 07:58:07;;;;;;;14.90;7.72;;;11.50;99.90;;;;;;5076646;28;20123;-85
2023/05/11 08:00:33;;;;;;;17.40;8.10;;;11.50;99.90;;;;;;5076451;28;20377;-83
2023/05/11 08:02:59;;;;;;;11.90;6.68;;;11.50;99.90;;;;;;5076805;28;20127;-83
2023/05/11 08:05:25;;;;;;;15.45;7.25;;;11.60;99.90;;;;;;5076293;28;20135;-81
2023/05/11 08:07:50;;;;;;;14.10;7.50;;;11.50;99.90;;;;;;5076821;28;20496;-82
2023/05/11 08:10:16;;;;;;;15.88;7.13;;;11.60;99.90;;;;;;5076481;28;20041;-86
2023/05/11 08:12:42;;;;;;;12.60;6.28;;;11.60;99.90;;;;;;5075043;28;20082;-84
2023/05/11 08:15:08;;;;;;;15.55;7.85;;;11.50;99.90;;;;;;5076447;28;20064;-84
2023/05/11 08:17:35;;;;;;;14.65;7.78;;;11.60;99.90;;;;;;5076518;28;20097;-84
2023/05/11 08:20:01;;;;;;;10.52;6.20;;;11.50;99.90;;;;;;5076518;28;20052;-83
2023/05/11 08:22:27;;;;;;;13.50;6.97;;;11.50;99.90;;;;;;5075172;28;20051;-83
2023/05/11 08:24:53;;;;;;;12.98;7.55;;;11.60;99.90;;;;;;5074855;28;20052;-83
2023/05/11 08:27:18;;;;;;;11.75;6.50;;;11.50;99.90;;;;;;5076031;28;20053;-84
2023/05/11 08:29:44;;;;;;;9.85;6.13;;;11.70;99.90;;;;;;5075940;28;20039;-84
2023/05/11 08:32:10;;;;;;;13.38;6.05;;;11.80;99.90;;;;;;5075882;28;20414;-83
2023/05/11 08:34:35;;;;;;;8.55;5.88;;;11.70;99.90;;;;;;5076214;28;20101;-85
2023/05/11 08:37:01;;;;;;;11.20;6.25;;;11.70;99.90;;;;;;5074875;28;20369;-85
2023/05/11 08:39:27;;;;;;;10.75;6.18;;;11.80;99.90;;;;;;5076283;28;20040;-83
2023/05/11 08:41:56;;;;;;;9.65;6.43;;;11.90;99.90;;;;;;5074818;28;20374;-86
2023/05/11 08:44:24;;;;;;;10.50;5.93;;;11.90;99.90;;;;;;5074755;28;20476;-86
2023/05/11 08:46:52;;;;;;;8.70;5.70;;;11.80;99.90;;;;;;5074503;28;20123;-86
2023/05/11 08:49:18;;;;;;;7.90;5.47;;;11.90;99.90;;;;;;5075158;28;20036;-86
2023/05/11 08:51:45;;;;;;;6.90;4.80;;;11.90;99.90;;;;;;5075765;28;20122;-86
2023/05/11 08:54:11;;;;;;;8.00;4.65;;;12.00;99.90;;;;;;5075967;28;20045;-86
2023/05/11 08:56:39;;;;;;;6.32;4.90;;;12.00;99.90;;;;;;5074222;28;20048;-86
2023/05/11 08:59:06;;;;;;;7.18;4.18;;;11.80;99.90;;;;;;5075569;28;20377;-86
2023/05/11 09:01:34;;;;;;;6.55;4.50;;;11.90;99.90;;;;;;5074223;28;20097;-83
2023/05/11 09:04:01;;;;;;;7.18;4.85;;;11.80;99.90;;;;;;5075466;28;20052;-86
2023/05/11 09:06:27;;;;;;;7.10;4.93;;;11.80;99.90;;;;;;5074149;28;20547;-85
2023/05/11 09:08:54;;;;;;;5.93;4.45;;;12.00;99.90;;;;;;5108299;28;20059;-87
2023/05/11 09:11:21;;;;;;;6.72;4.75;;;11.90;99.90;;;;;;5075393;28;20072;-84
2023/05/11 09:13:47;;;;;;;6.65;3.70;;;11.90;99.90;;;;;;5075220;28;20079;-83
2023/05/11 09:16:13;;;;;;;5.47;3.85;;;11.90;99.90;;;;;;5074296;28;20051;-84
2023/05/11 09:18:46;;;;;;;6.13;3.50;;;11.90;99.90;;;;;;5073857;28;20048;-84
2023/05/11 09:21:12;;;;;;;5.00;3.33;;;12.00;99.90;;;;;;5075416;28;20040;-84
2023/05/11 09:23:39;;;;;;;5.00;3.55;;;12.10;99.90;;;;;;5073781;28;20143;-83
2023/05/11 09:26:12;;;;;;;8.00;4.05;;;12.20;99.90;;;;;;5073535;28;20083;-85
2023/05/11 09:28:51;;;;;;;7.97;4.93;;;12.30;99.90;;;;;;5074989;28;20088;-85
2023/05/11 09:31:40;;;;;;;4.65;3.05;;;12.30;99.90;;;;;;5073815;28;20040;-85
2023/05/11 09:34:24;;;;;;;5.25;3.63;;;12.50;99.90;;;;;;5074839;28;20036;-85
2023/05/11 09:36:55;;;;;;;5.88;3.60;;;12.50;99.90;;;;;;5075083;28;20133;-85
2023/05/11 09:39:34;;;;;;;5.00;2.83;;;12.60;99.90;;;;;;5074754;28;20449;-86
2023/05/11 09:42:13;;;;;;;4.60;3.40;;;12.80;99.90;;;;;;5074969;28;20059;-86
2023/05/11 09:44:40;;;;;;;4.65;3.00;;;12.70;99.90;;;;;;5073245;28;20090;-85
2023/05/11 09:47:16;;;;;;;5.82;4.10;;;12.60;99.90;;;;;;5073369;28;20052;-86
2023/05/11 09:49:43;;;;;;;5.53;4.00;;;12.70;99.90;;;;;;5073250;28;20040;-87
2023/05/11 09:52:15;;;;;;;5.70;3.88;;;12.70;99.90;;;;;;5073256;28;20076;-81
2023/05/11 09:54:43;;;;;;;9.75;5.00;;;12.90;99.90;;;;;;5074701;28;20045;-81
2023/05/11 09:57:25;;;;;;;7.00;5.38;;;13.00;99.90;;;;;;5074550;28;20045;-79
2023/05/11 09:59:52;;;;;;;6.65;5.00;;;13.10;99.90;;;;;;5074304;28;20385;-82
2023/05/11 10:02:26;;;;;;;7.45;5.78;;;13.10;99.90;;;;;;5073082;28;20051;-85
2023/05/11 10:04:53;;;;;;;8.45;6.03;;;13.10;99.90;;;;;;5072885;28;20040;-84
2023/05/11 10:07:32;;;;;;;7.25;5.30;;;13.20;99.90;;;;;;5074431;28;20080;-84
2023/05/11 10:10:04;;;;;;;7.63;5.10;;;13.30;99.90;;;;;;5073213;28;20076;-85
2023/05/11 10:12:32;;;;;;;6.72;4.80;;;13.40;99.90;;;;;;5073132;28;20044;-85
2023/05/11 10:15:05;;;;;;;5.70;4.50;;;13.50;99.90;;;;;;5073070;28;20048;-85
2023/05/11 10:17:31;;;;;;;;;;;13.20;99.90;;;;;;5074509;28;20059;-85
2023/05/11 10:19:58;;;;;;;5.50;4.13;;;13.40;99.90;;;;;;5072598;28;19920;-85
2023/05/11 10:22:24;;;;;;;4.72;3.80;;;13.50;99.90;;;;;;5074186;28;20091;-84
2023/05/11 10:24:51;;;;;;;6.47;3.63;;;13.60;99.90;;;;;;5073801;28;20139;-85
2023/05/11 10:27:18;;;;;;;5.75;3.67;;;13.90;99.90;;;;;;5074233;28;20048;-85
2023/05/11 10:29:44;;;;;;;4.78;3.40;;;14.00;99.90;;;;;;5072524;28;20048;-85
2023/05/11 10:32:11;;;;;;;5.82;4.45;;;14.10;99.90;;;;;;5073734;28;20415;-85
2023/05/11 10:34:39;;;;;;;8.18;4.47;;;14.20;99.90;;;;;;5072356;28;20112;-84
2023/05/11 10:37:05;;;;;;;6.80;4.18;;;14.20;99.90;;;;;;5072681;28;20068;-85
2023/05/11 10:39:32;;;;;;;5.20;4.10;;;14.30;99.90;;;;;;5072720;28;20488;-84
2023/05/11 10:42:16;;;;;;;6.57;4.18;;;14.20;99.90;;;;;;5073544;28;20055;-84
2023/05/11 10:45:17;;;;;;;7.80;4.10;;;14.10;99.90;;;;;;5072278;28;20098;-85
2023/05/11 10:48:05;;;;;;;6.05;4.32;;;14.10;99.90;;;;;;5072601;28;20503;-85
2023/05/11 10:51:01;;;;;;;8.40;3.80;;;14.10;99.90;;;;;;5072232;28;20041;-84
2023/05/11 10:53:36;;;;;;;6.13;4.20;;;14.20;99.90;;;;;;5090381;28;20054;-87
2023/05/11 10:56:14;;;;;;;7.28;4.38;;;13.90;99.90;;;;;;5092372;28;20047;-86
2023/05/11 10:58:58;;;;;;;8.88;4.90;;;14.20;99.90;;;;;;5093603;28;20407;-86
2023/05/11 11:01:35;;;;;;;5.60;4.03;;;14.10;99.90;;;;;;5092287;28;20386;-87
2023/05/11 11:04:04;;;;;;;6.75;3.72;;;14.10;99.90;;;;;;5092336;28;20087;-87
2023/05/11 11:06:31;;;;;;;6.38;4.00;;;14.00;99.90;;;;;;5092081;28;20052;-87
2023/05/11 11:08:58;;;;;;;4.50;3.13;;;14.10;99.90;;;;;;5092033;28;20044;-87
2023/05/11 11:11:31;;;;;;;4.72;3.50;;;13.80;99.90;;;;;;5092794;28;20058;-87
2023/05/11 11:14:01;;;;;;;5.10;3.70;;;13.50;99.90;;;;;;5093707;28;20055;-87
2023/05/11 11:16:27;;;;;;;6.07;3.83;;;13.50;99.90;;;;;;5092276;28;20036;-87
2023/05/11 11:19:30;;;;;;;5.80;4.05;;;13.80;99.90;;;;;;5093605;28;20051;-87
2023/05/11 11:21:58;;;;;;;6.70;3.90;;;13.70;99.90;;;;;;5093197;28;20044;-86
2023/05/11 11:24:40;;;;;;;7.38;4.32;;;13.60;99.90;;;;;;5093283;28;20096;-86
2023/05/11 11:27:08;;;;;;;9.68;4.97;;;13.70;99.90;;;;;;5093510;28;20048;-87
2023/05/11 11:29:35;;;;;;;6.18;3.90;;;13.90;99.90;;;;;;5091997;28;20044;-87
2023/05/11 11:32:19;;;;;;;5.90;4.07;;;13.90;99.90;;;;;;5091879;28;20131;-87
2023/05/11 11:34:48;;;;;;;7.22;4.30;;;13.80;99.90;;;;;;5092150;28;20495;-86
2023/05/11 11:37:15;;;;;;;6.75;3.80;;;14.00;99.90;;;;;;5093287;28;20047;-87
2023/05/11 11:39:41;;;;;;;7.30;3.95;;;13.80;99.90;;;;;;5093210;28;20048;-87
2023/05/11 11:42:14;;;;;;;10.82;4.07;;;13.60;99.90;;;;;;5093261;28;20119;-87
2023/05/11 11:44:40;;;;;;;;;;;13.70;99.90;;;;;;5093402;28;20502;-87
2023/05/11 11:47:21;;;;;;;8.10;4.72;;;13.70;99.90;;;;;;5091787;28;20007;-87
2023/05/11 11:49:54;;;;;;;8.10;4.22;;;13.70;99.90;;;;;;5093314;28;20082;-87
2023/05/11 11:52:25;;;;;;;8.80;4.25;;;13.80;99.90;;;;;;5091702;28;20036;-87
2023/05/11 11:54:51;;;;;;;7.07;3.70;;;13.90;99.90;;;;;;5091750;28;20048;-87
2023/05/11 11:57:32;;;;;;;8.35;3.78;;;13.80;99.90;;;;;;5091911;28;20040;-87
2023/05/11 12:00:11;;;;;;;6.78;3.45;;;14.00;99.90;;;;;;5092973;28;20048;-87
2023/05/11 12:02:44;;;;;;;8.63;4.30;;;14.00;99.90;;;;;;5092909;28;20069;-87
2023/05/11 12:05:18;;;;;;;8.30;4.07;;;13.70;99.90;;;;;;5092727;28;20047;-87
2023/05/11 12:07:51;;;;;;;8.85;3.67;;;13.80;99.90;;;;;;5093150;28;20040;-87
2023/05/11 12:10:19;;;;;;;12.32;4.10;;;13.50;99.90;;;;;;5092750;28;20408;-87
2023/05/11 12:12:50;;;;;;;6.60;3.72;;;13.30;99.90;;;;;;5091534;28;20086;-87
2023/05/11 12:15:26;;;;;;;7.28;3.70;;;13.00;99.90;;;;;;5092993;28;20047;-87
2023/05/11 12:17:52;;;;;;;8.88;4.25;;;13.30;99.90;;;;;;5091540;28;20055;-87
2023/05/11 12:20:19;;;;;;;7.55;4.00;;;13.10;99.90;;;;;;5093050;28;20070;-87
2023/05/11 12:22:47;;;;;;;6.40;3.92;;;13.20;99.90;;;;;;5093365;28;20075;-86
2023/05/11 12:25:22;;;;;;;8.70;4.00;;;13.20;99.90;;;;;;5095139;28;20060;-87
2023/05/11 12:27:53;;;;;;;9.50;4.32;;;13.30;99.90;;;;;;5096679;28;20380;-86
2023/05/11 12:30:26;;;;;;;8.90;3.70;;;13.30;99.90;;;;;;5095374;28;20059;-86
2023/05/11 12:32:52;;;;;;;7.37;3.70;;;13.30;99.90;;;;;;5096852;28;20043;-86
2023/05/11 12:35:38;;;;;;;5.68;3.25;;;13.20;99.90;;;;;;5096573;28;20305;-87
2023/05/11 12:38:03;;;;;;;7.60;4.30;;;13.20;99.90;;;;;;5096479;28;20051;-87
2023/05/11 12:40:30;;;;;;;7.18;4.03;;;13.30;99.90;;;;;;5096629;28;20415;-86
2023/05/11 12:42:57;;;;;;;10.70;4.28;;;13.30;99.90;;;;;;5095292;28;20510;-87
2023/05/11 12:45:24;;;;;;;8.02;4.10;;;13.10;99.90;;;;;;5095136;28;20495;-87
2023/05/11 12:47:55;;;;;;;9.82;3.05;;;13.20;99.90;;;;;;5096500;28;20036;-87
2023/05/11 12:50:21;;;;;;;5.40;3.00;;;13.30;99.90;;;;;;5096363;28;20047;-86
2023/05/11 12:52:49;;;;;;;6.05;3.42;;;13.30;99.90;;;;;;5094860;28;20048;-87